»·PEaware :: N62503 KSMX-KBFL

N62503 :: KSMX-KBFL

FLIGHT INFORMATION

Flight Status: Arrived
Operator: Privately registered:
United States
More flights under this callsign
Pilot: Colin G. (17707)
Aircraft: PIPER PA-28 CHEROKEE ARCHER
(P28A)
More flights by this aircraft type
Origin: KSMX Santa Maria Pub/Capt Hancock
United States
Destination: KBFL Meadows
United States
More flights between these airports :: More routes between these airports
Route:
File this flight plan on PilotEdge
Remarks: CAT-05
Altitude:
(Current/Filed)
1,200ft
Speed:
(Current/Filed)
115kts
Departed: 30-Dec-17 11:39 AM
Arrived: 30-Dec-17 12:26 PM
Distance/Time
Traveled:
76nm/0:47
Distance/Time
To Go:
Arrived

Flight Plot

Page will automatically refresh every two minutes.


Map Options




Map Legend


Flown Route
Filed Route
Departure Airport
Arrival Airport
Navaid (VOR, NDB)
Fix

Horizontal Profiles

Position Reports

Time Latitude Longitude Heading Altitude Ground
Speed
30-Dec-17 11:32 34.904726 -120.458073 215 234ft 0kts
30-Dec-17 11:33 34.904726 -120.458073 215 234ft 0kts
30-Dec-17 11:34 34.904726 -120.458073 215 234ft 0kts
30-Dec-17 11:35 34.904126 -120.456948 137 233ft 18kts
30-Dec-17 11:36 34.903063 -120.455649 135 234ft 22kts
30-Dec-17 11:37 34.896305 -120.447581 133 253ft 29kts
30-Dec-17 11:38 34.893727 -120.445257 181 258ft 0kts
30-Dec-17 11:39 34.893727 -120.445257 181 258ft 0kts
30-Dec-17 11:40 34.893727 -120.445257 181 258ft 0kts
30-Dec-17 11:41 34.893727 -120.445257 181 258ft 0kts
30-Dec-17 11:42 34.893727 -120.445257 181 258ft 0kts
30-Dec-17 11:43 34.893727 -120.445257 181 258ft 0kts
30-Dec-17 11:44 34.893727 -120.445257 181 258ft 0kts
30-Dec-17 11:45 34.900457 -120.455464 309 631ft 71kts
30-Dec-17 11:46 34.910565 -120.451816 69 1680ft 73kts
30-Dec-17 11:47 34.918059 -120.428064 66 2720ft 77kts
30-Dec-17 11:48 34.922886 -120.402556 67 3733ft 78kts
30-Dec-17 11:49 34.931702 -120.379089 69 4711ft 74kts
30-Dec-17 11:50 34.941574 -120.356595 59 5522ft 88kts
30-Dec-17 11:51 34.956351 -120.322175 63 5483ft 119kts
30-Dec-17 11:52 34.970572 -120.286313 64 5484ft 116kts
30-Dec-17 11:53 34.984418 -120.250552 64 5484ft 116kts
30-Dec-17 11:54 34.998122 -120.214884 64 5484ft 116kts
30-Dec-17 11:55 35.011843 -120.179059 64 5484ft 116kts
30-Dec-17 11:56 35.025496 -120.143348 64 5484ft 116kts
30-Dec-17 11:57 35.039120 -120.107688 64 5484ft 115kts
30-Dec-17 11:58 35.048446 -120.083247 64 5484ft 115kts
30-Dec-17 11:59 35.056257 -120.062769 64 5484ft 115kts
30-Dec-17 12:00 35.059578 -120.054063 64 5484ft 115kts
30-Dec-17 12:01 35.073121 -120.018504 64 5484ft 115kts
30-Dec-17 12:02 35.086615 -119.982737 65 5484ft 115kts
30-Dec-17 12:03 35.100012 -119.946978 65 5484ft 115kts
30-Dec-17 12:04 35.113745 -119.911407 64 5484ft 117kts
30-Dec-17 12:05 35.127466 -119.875749 65 5484ft 118kts
30-Dec-17 12:06 35.141665 -119.838561 65 5318ft 124kts
30-Dec-17 12:07 35.155427 -119.802267 65 5300ft 114kts
30-Dec-17 12:08 35.168694 -119.767176 65 5300ft 113kts
30-Dec-17 12:09 35.182248 -119.731268 65 5301ft 117kts
30-Dec-17 12:10 35.195981 -119.694846 65 5301ft 117kts
30-Dec-17 12:11 35.209633 -119.658578 65 5301ft 117kts
30-Dec-17 12:12 35.223312 -119.622210 65 5301ft 117kts
30-Dec-17 12:13 35.236933 -119.584536 69 4897ft 136kts
30-Dec-17 12:14 35.251330 -119.540323 61 3470ft 135kts
30-Dec-17 12:15 35.266622 -119.505760 63 3484ft 109kts
30-Dec-17 12:16 35.279276 -119.472946 65 3535ft 104kts
30-Dec-17 12:17 35.291573 -119.440169 65 3541ft 106kts
30-Dec-17 12:18 35.304176 -119.406315 65 3544ft 117kts
30-Dec-17 12:19 35.318000 -119.369427 65 3541ft 120kts
30-Dec-17 12:20 35.331903 -119.332159 65 3541ft 120kts
30-Dec-17 12:21 35.345771 -119.294789 66 3488ft 124kts
30-Dec-17 12:22 35.359167 -119.252111 77 2397ft 132kts
30-Dec-17 12:23 35.374473 -119.216866 64 2400ft 112kts
30-Dec-17 12:24 35.387595 -119.182295 65 2401ft 111kts
30-Dec-17 12:25 35.405449 -119.146582 49 1529ft 124kts
30-Dec-17 12:26 35.423895 -119.113779 65 1093ft 109kts
30-Dec-17 12:27 35.417912 -119.085567 147 1389ft 94kts
30-Dec-17 12:28 35.398631 -119.066390 146 1519ft 78kts
30-Dec-17 12:29 35.399430 -119.046628 58 1310ft 68kts
30-Dec-17 12:30 35.412279 -119.033867 355 869ft 61kts
30-Dec-17 12:31 35.425642 -119.046207 314 476ft 51kts
30-Dec-17 12:32 35.431963 -119.052032 1 482ft 0kts
30-Dec-17 12:33 35.431963 -119.052032 1 482ft 0kts

Navigation Log

Ident Type
1. KSMX Airport
2. KBFL Airport